Time;durP1;ratioP1;P1;durP2;ratioP2;P2;SDS_P1;SDS_P2;PMS_P1;PMS_P2;Temp;Humidity;BMP_temperature;BMP_pressure;BME280_temperature;BME280_humidity;BME280_pressure;Samples;Min_cycle;Max_cycle;Signal;HPM_P1;HPM_P2
2022/03/06 00:00:30;;;;;;;20.42;11.57;;;2.60;72.60;;;;;;2089853;28;20103;-86
2022/03/06 00:01:30;;;;;;;19.55;11.18;;;2.50;72.60;;;;;;2082948;28;20096;-86
2022/03/06 00:02:31;;;;;;;21.10;11.00;;;2.50;72.70;;;;;;2087585;28;20041;-86
2022/03/06 00:03:31;;;;;;;18.90;11.30;;;2.50;72.70;;;;;;2088701;28;20072;-86
2022/03/06 00:04:32;;;;;;;20.13;11.45;;;2.50;72.80;;;;;;2083149;28;20509;-86
2022/03/06 00:05:33;;;;;;;18.33;11.13;;;2.50;72.90;;;;;;2087038;28;20815;-85
2022/03/06 00:06:34;;;;;;;19.92;11.85;;;2.40;72.90;;;;;;2085947;28;20437;-85
2022/03/06 00:07:34;;;;;;;18.70;11.35;;;2.40;73.00;;;;;;2084494;28;20041;-85
2022/03/06 00:08:35;;;;;;;18.08;10.88;;;2.40;73.00;;;;;;2089093;28;20048;-86
2022/03/06 00:09:36;;;;;;;20.52;11.63;;;2.40;73.00;;;;;;2086993;28;20047;-85
2022/03/06 00:10:37;;;;;;;19.08;11.23;;;2.40;73.10;;;;;;2095542;28;20037;-86
2022/03/06 00:11:37;;;;;;;19.30;11.60;;;2.40;73.20;;;;;;2101490;28;20417;-85
2022/03/06 00:12:38;;;;;;;19.08;10.77;;;2.40;73.20;;;;;;2097407;28;20036;-85
2022/03/06 00:13:39;;;;;;;19.60;10.75;;;2.30;73.30;;;;;;2092336;28;20874;-86
2022/03/06 00:14:39;;;;;;;20.55;11.30;;;2.30;73.30;;;;;;2091385;28;20070;-85
2022/03/06 00:15:41;;;;;;;19.40;12.02;;;2.30;73.40;;;;;;2084813;28;20063;-85
2022/03/06 00:16:42;;;;;;;21.75;11.82;;;2.30;73.40;;;;;;2080628;28;20033;-85
2022/03/06 00:17:43;;;;;;;19.55;11.63;;;2.30;73.50;;;;;;2084501;28;20471;-86
2022/03/06 00:18:43;;;;;;;20.02;11.52;;;2.30;73.60;;;;;;2079270;28;20508;-86
2022/03/06 00:19:44;;;;;;;20.85;12.05;;;2.20;73.60;;;;;;2093662;28;20048;-86
2022/03/06 00:20:44;;;;;;;22.75;12.27;;;2.20;73.70;;;;;;2098794;28;20411;-86
2022/03/06 00:21:45;;;;;;;20.08;11.82;;;2.20;73.70;;;;;;2092020;28;20047;-85
2022/03/06 00:22:46;;;;;;;23.08;12.32;;;2.20;73.80;;;;;;2092256;28;20037;-86
2022/03/06 00:23:47;;;;;;;22.52;12.23;;;2.20;73.90;;;;;;2083736;28;20061;-86
2022/03/06 00:24:47;;;;;;;20.08;11.95;;;2.10;73.90;;;;;;2080697;28;20075;-85
2022/03/06 00:25:48;;;;;;;20.10;11.52;;;2.10;74.00;;;;;;2090708;28;20084;-86
2022/03/06 00:26:49;;;;;;;20.60;12.20;;;2.10;74.00;;;;;;2092476;28;20491;-85
2022/03/06 00:27:49;;;;;;;20.45;12.30;;;2.10;74.00;;;;;;2063372;28;20057;-86
2022/03/06 00:28:50;;;;;;;21.73;12.65;;;2.10;74.10;;;;;;2062252;28;20043;-86
2022/03/06 00:29:51;;;;;;;19.48;11.38;;;2.10;74.10;;;;;;2059408;28;20116;-85
2022/03/06 00:30:51;;;;;;;20.25;12.32;;;2.10;74.20;;;;;;2069027;28;20110;-86
2022/03/06 00:31:52;;;;;;;21.75;12.27;;;2.10;74.20;;;;;;2098924;28;20036;-86
2022/03/06 00:32:53;;;;;;;23.73;12.80;;;2.10;74.20;;;;;;2084067;28;20049;-86
2022/03/06 00:33:53;;;;;;;22.05;12.88;;;2.10;74.20;;;;;;2051075;28;20039;-86
2022/03/06 00:34:54;;;;;;;20.13;12.10;;;2.00;74.30;;;;;;2052847;28;20089;-86
2022/03/06 00:35:54;;;;;;;24.75;11.68;;;2.00;74.40;;;;;;2057677;28;20039;-85
2022/03/06 00:36:55;;;;;;;20.70;11.77;;;2.00;74.30;;;;;;2076402;28;20500;-85
2022/03/06 00:37:57;;;;;;;19.15;11.40;;;2.00;74.40;;;;;;2050056;28;20109;-85
2022/03/06 00:38:57;;;;;;;20.77;11.70;;;2.00;74.50;;;;;;2049211;28;20102;-86
2022/03/06 00:39:58;;;;;;;20.65;12.18;;;2.00;74.40;;;;;;2050248;28;20479;-86
2022/03/06 00:40:59;;;;;;;19.90;12.23;;;2.00;74.50;;;;;;2089195;28;20123;-85
2022/03/06 00:42:00;;;;;;;20.80;12.30;;;2.00;74.50;;;;;;2097170;28;20103;-85
2022/03/06 00:43:00;;;;;;;18.48;11.02;;;2.00;74.60;;;;;;2056030;28;20129;-86
2022/03/06 00:44:01;;;;;;;20.77;12.77;;;2.00;74.60;;;;;;2048342;28;20036;-85
2022/03/06 00:45:03;;;;;;;21.08;11.85;;;2.00;74.70;;;;;;2056684;28;20493;-86
2022/03/06 00:46:04;;;;;;;18.65;11.18;;;1.90;74.60;;;;;;2056929;28;20070;-85
2022/03/06 00:47:04;;;;;;;21.35;11.57;;;1.90;74.70;;;;;;2052779;28;20497;-86
2022/03/06 00:48:06;;;;;;;18.35;10.85;;;1.90;74.60;;;;;;2049568;28;20039;-86
2022/03/06 00:49:06;;;;;;;19.63;10.93;;;1.90;74.60;;;;;;2051757;28;20048;-85
2022/03/06 00:50:07;;;;;;;18.92;10.88;;;1.90;74.70;;;;;;2051365;28;20497;-85
2022/03/06 00:51:08;;;;;;;19.40;11.35;;;1.90;74.80;;;;;;2063388;28;20042;-86
2022/03/06 00:52:09;;;;;;;20.45;11.57;;;1.90;74.80;;;;;;2068401;28;20038;-86
2022/03/06 00:53:10;;;;;;;19.58;10.80;;;1.90;74.90;;;;;;2066207;28;20047;-86
2022/03/06 00:54:10;;;;;;;19.33;11.30;;;1.90;74.90;;;;;;2094505;28;20029;-85
2022/03/06 00:55:11;;;;;;;18.65;11.15;;;1.90;74.90;;;;;;2076701;28;20131;-85
2022/03/06 00:56:12;;;;;;;20.15;11.45;;;1.90;75.00;;;;;;2058347;28;20524;-85
2022/03/06 00:57:12;;;;;;;22.02;12.20;;;1.90;75.00;;;;;;2056824;28;20051;-86
2022/03/06 00:58:13;;;;;;;18.55;10.77;;;1.90;75.60;;;;;;2056794;28;20058;-86
2022/03/06 00:59:14;;;;;;;19.50;11.00;;;1.90;75.00;;;;;;2107083;28;20043;-85
2022/03/06 01:00:15;;;;;;;18.67;11.00;;;1.90;75.00;;;;;;2060952;28;20118;-86
2022/03/06 01:01:16;;;;;;;20.80;11.98;;;1.90;75.00;;;;;;2057136;28;20100;-86
2022/03/06 01:02:16;;;;;;;18.98;11.32;;;1.90;75.00;;;;;;2064210;28;20056;-86
2022/03/06 01:03:19;;;;;;;19.17;10.68;;;1.90;75.00;;;;;;2062164;28;20491;-86
2022/03/06 01:04:19;;;;;;;18.27;10.85;;;1.90;75.00;;;;;;2092309;28;20036;-86
2022/03/06 01:05:20;;;;;;;18.90;10.70;;;1.90;75.00;;;;;;2089186;28;20050;-86
2022/03/06 01:06:21;;;;;;;19.85;11.00;;;1.90;75.00;;;;;;2100083;28;20024;-85
2022/03/06 01:07:22;;;;;;;17.40;10.57;;;1.90;75.00;;;;;;2081778;28;20042;-86
2022/03/06 01:08:23;;;;;;;17.33;10.55;;;1.90;75.00;;;;;;2075531;28;20038;-85
2022/03/06 01:09:23;;;;;;;17.95;10.82;;;1.90;75.00;;;;;;2064157;28;20062;-86
2022/03/06 01:10:24;;;;;;;19.27;10.88;;;1.80;75.00;;;;;;2072752;28;20090;-86
2022/03/06 01:11:25;;;;;;;19.17;11.45;;;1.90;75.10;;;;;;2078187;28;20039;-86
2022/03/06 01:12:26;;;;;;;19.30;11.27;;;1.90;75.10;;;;;;2062332;28;20038;-86
2022/03/06 01:13:26;;;;;;;19.95;11.02;;;1.90;75.10;;;;;;2057082;28;20043;-86
2022/03/06 01:14:27;;;;;;;19.45;11.52;;;1.90;75.10;;;;;;2071044;28;20407;-86
2022/03/06 01:15:28;;;;;;;19.42;11.27;;;1.90;75.10;;;;;;2106906;28;20482;-85
2022/03/06 01:16:29;;;;;;;19.80;11.73;;;1.90;75.00;;;;;;2072458;28;20061;-85
2022/03/06 01:17:30;;;;;;;22.00;12.48;;;1.90;75.10;;;;;;2064868;28;20142;-85
2022/03/06 01:18:30;;;;;;;19.73;11.80;;;1.90;75.10;;;;;;2062649;28;20046;-86
2022/03/06 01:19:31;;;;;;;18.85;10.93;;;1.80;75.00;;;;;;2064022;28;20061;-85
2022/03/06 01:20:33;;;;;;;17.85;11.70;;;1.90;75.10;;;;;;2061793;28;20412;-85
2022/03/06 01:21:33;;;;;;;18.30;10.57;;;1.90;75.20;;;;;;2064599;28;20050;-86
2022/03/06 01:22:34;;;;;;;19.45;11.63;;;1.90;75.10;;;;;;2085401;28;20062;-86
2022/03/06 01:23:35;;;;;;;18.35;10.85;;;1.80;75.10;;;;;;2055699;28;20037;-86
2022/03/06 01:24:36;;;;;;;16.88;10.43;;;1.80;75.10;;;;;;2048805;28;20413;-86
2022/03/06 01:25:37;;;;;;;18.67;10.85;;;1.80;75.20;;;;;;2048482;28;20043;-86
2022/03/06 01:26:37;;;;;;;17.52;11.45;;;1.80;75.20;;;;;;2061593;28;20039;-86
2022/03/06 01:27:38;;;;;;;17.58;10.60;;;1.80;75.20;;;;;;2064832;28;20035;-86
2022/03/06 01:28:39;;;;;;;19.50;11.48;;;1.80;75.20;;;;;;2081216;28;20127;-86
2022/03/06 01:29:40;;;;;;;18.48;10.90;;;1.80;75.20;;;;;;2048913;28;20472;-86
2022/03/06 01:30:40;;;;;;;17.52;10.80;;;1.80;75.20;;;;;;2072803;28;20101;-86
2022/03/06 01:31:41;;;;;;;18.52;9.98;;;1.80;75.30;;;;;;2049766;28;20035;-86
2022/03/06 01:32:42;;;;;;;17.10;10.20;;;1.80;75.30;;;;;;2056308;28;20038;-86
2022/03/06 01:33:43;;;;;;;16.90;10.40;;;1.80;75.40;;;;;;2051753;28;20531;-86
2022/03/06 01:34:44;;;;;;;19.33;10.55;;;1.80;75.40;;;;;;2059538;28;20050;-86
2022/03/06 01:35:44;;;;;;;17.83;10.40;;;1.70;75.40;;;;;;2056714;28;20043;-86
2022/03/06 01:36:45;;;;;;;19.88;10.77;;;1.70;75.40;;;;;;2064345;28;20062;-86
2022/03/06 01:37:46;;;;;;;17.25;10.13;;;1.70;75.50;;;;;;2064376;28;20047;-86
2022/03/06 01:38:47;;;;;;;16.92;10.60;;;1.70;75.50;;;;;;2072081;28;20038;-85
2022/03/06 01:39:48;;;;;;;17.08;10.50;;;1.70;75.50;;;;;;2104114;28;20485;-86
2022/03/06 01:40:48;;;;;;;16.67;10.63;;;1.70;75.60;;;;;;2075410;28;20043;-85
2022/03/06 01:41:49;;;;;;;18.70;11.43;;;1.70;75.60;;;;;;2050802;28;20036;-85
2022/03/06 01:42:50;;;;;;;17.40;10.63;;;1.70;75.60;;;;;;2083934;28;20048;-85
2022/03/06 01:43:50;;;;;;;19.75;10.52;;;1.60;75.60;;;;;;2095588;28;20036;-85
2022/03/06 01:44:51;;;;;;;19.25;11.32;;;1.60;75.60;;;;;;2096638;28;20048;-86
2022/03/06 01:45:52;;;;;;;18.83;10.52;;;1.60;75.70;;;;;;2034848;28;20040;-85
2022/03/06 01:46:53;;;;;;;15.95;10.15;;;1.60;75.70;;;;;;2047096;28;20039;-85
2022/03/06 01:47:55;;;;;;;17.38;10.25;;;1.60;75.80;;;;;;2056378;28;20039;-85
2022/03/06 01:48:55;;;;;;;17.02;10.02;;;1.60;76.40;;;;;;2055661;28;20035;-85
2022/03/06 01:49:56;;;;;;;17.48;10.73;;;1.50;75.80;;;;;;2060959;28;20043;-85
2022/03/06 01:50:56;;;;;;;16.35;9.82;;;1.60;75.90;;;;;;2058744;28;20137;-86
2022/03/06 01:51:57;;;;;;;17.88;10.30;;;1.60;75.90;;;;;;2094644;28;20044;-86
2022/03/06 01:52:59;;;;;;;16.92;10.65;;;1.60;75.90;;;;;;2066373;28;20035;-86
2022/03/06 01:54:00;;;;;;;17.35;10.32;;;1.60;75.90;;;;;;2062768;28;20091;-85
2022/03/06 01:55:02;;;;;;;17.98;10.55;;;1.50;75.90;;;;;;2064500;28;20042;-85
2022/03/06 01:56:02;;;;;;;15.90;10.00;;;1.50;75.90;;;;;;2089750;28;20494;-86
2022/03/06 01:57:03;;;;;;;17.77;11.07;;;1.50;76.00;;;;;;2089911;28;20045;-86
2022/03/06 01:58:08;;;;;;;18.23;11.00;;;1.50;76.10;;;;;;2089853;28;20112;-86
2022/03/06 01:59:10;;;;;;;18.58;11.40;;;1.50;76.10;;;;;;2047152;28;20081;-85
2022/03/06 02:00:23;;;;;;;16.98;9.93;;;1.50;76.10;;;;;;2062885;28;20035;-86
2022/03/06 02:01:23;;;;;;;16.50;10.07;;;1.50;76.10;;;;;;2061426;28;20045;-86
2022/03/06 02:02:25;;;;;;;18.23;10.43;;;1.40;76.10;;;;;;2060664;28;20062;-86
2022/03/06 02:03:25;;;;;;;16.13;10.02;;;1.50;76.20;;;;;;2058499;28;20035;-85
2022/03/06 02:04:26;;;;;;;17.13;10.60;;;1.50;76.20;;;;;;2056850;28;20077;-85
2022/03/06 02:05:27;;;;;;;17.70;10.60;;;1.40;76.10;;;;;;2064275;28;20054;-86
2022/03/06 02:06:29;;;;;;;16.25;10.32;;;1.40;76.20;;;;;;2064164;28;20105;-85
2022/03/06 02:07:29;;;;;;;17.60;10.57;;;1.40;76.30;;;;;;2055826;28;20044;-86
2022/03/06 02:08:30;;;;;;;17.90;10.70;;;1.40;76.30;;;;;;2047965;29;20494;-86
2022/03/06 02:09:31;;;;;;;16.75;10.38;;;1.40;76.30;;;;;;2056295;28;20047;-85
2022/03/06 02:10:32;;;;;;;16.55;10.18;;;1.40;76.30;;;;;;2055415;28;20073;-85
2022/03/06 02:11:34;;;;;;;16.42;10.02;;;1.40;76.40;;;;;;2060938;28;20042;-86
2022/03/06 02:12:36;;;;;;;15.48;9.38;;;1.40;76.40;;;;;;2064765;28;20033;-86
2022/03/06 02:13:37;;;;;;;18.50;10.50;;;1.30;76.40;;;;;;2056038;28;20049;-85
2022/03/06 02:14:38;;;;;;;16.08;9.90;;;1.30;76.40;;;;;;2048372;28;20032;-86
2022/03/06 02:15:39;;;;;;;15.60;9.45;;;1.30;76.40;;;;;;2046634;28;20130;-85
2022/03/06 02:16:39;;;;;;;15.32;9.43;;;1.30;76.40;;;;;;2047885;28;20039;-86
2022/03/06 02:17:40;;;;;;;15.73;9.82;;;1.40;76.50;;;;;;2049846;28;20547;-86
2022/03/06 02:18:40;;;;;;;15.15;9.35;;;1.30;76.40;;;;;;2054981;28;20043;-85
2022/03/06 02:19:52;;;;;;;15.82;9.27;;;1.30;76.40;;;;;;2048126;28;20422;-85
2022/03/06 02:20:53;;;;;;;16.50;10.57;;;1.30;76.50;;;;;;2056908;28;20415;-86
2022/03/06 02:21:54;;;;;;;14.57;9.30;;;1.30;76.50;;;;;;2059289;28;20031;-86
2022/03/06 02:22:58;;;;;;;14.18;9.27;;;1.30;76.50;;;;;;2059294;28;20042;-85
2022/03/06 02:23:59;;;;;;;17.65;10.70;;;1.30;76.50;;;;;;2061630;28;20037;-85
2022/03/06 02:25:06;;;;;;;17.27;10.40;;;1.30;76.50;;;;;;2054353;28;20077;-85
2022/03/06 02:26:08;;;;;;;17.88;10.15;;;1.20;76.60;;;;;;2062606;28;20047;-85
2022/03/06 02:27:08;;;;;;;15.55;9.65;;;1.30;76.70;;;;;;2057463;28;20034;-86
2022/03/06 02:28:10;;;;;;;17.30;10.40;;;1.20;76.60;;;;;;2079924;28;20558;-86
2022/03/06 02:29:11;;;;;;;14.68;9.63;;;1.20;76.60;;;;;;2050062;28;20058;-85
2022/03/06 02:30:17;;;;;;;16.33;9.93;;;1.20;76.70;;;;;;2047941;28;20590;-86
2022/03/06 02:31:18;;;;;;;15.93;9.73;;;1.20;76.80;;;;;;2065703;28;20035;-86
2022/03/06 02:32:21;;;;;;;14.95;9.75;;;1.20;76.70;;;;;;2062977;28;20062;-85
2022/03/06 02:33:22;;;;;;;14.35;8.93;;;1.20;76.70;;;;;;2064945;28;20030;-85
2022/03/06 02:34:22;;;;;;;14.73;9.40;;;1.20;76.60;;;;;;2063641;28;20034;-86
2022/03/06 02:35:24;;;;;;;14.95;8.98;;;1.20;76.60;;;;;;2050045;28;20030;-85
2022/03/06 02:36:25;;;;;;;15.90;9.50;;;1.20;76.60;;;;;;2053755;28;20526;-85
2022/03/06 02:37:25;;;;;;;16.33;10.02;;;1.20;76.50;;;;;;2056829;28;20035;-85
2022/03/06 02:38:26;;;;;;;16.50;10.25;;;1.20;76.60;;;;;;2089647;28;20138;-86
2022/03/06 02:39:27;;;;;;;17.65;10.45;;;1.20;76.60;;;;;;2090687;28;20044;-85
2022/03/06 02:40:28;;;;;;;19.10;10.13;;;1.20;76.60;;;;;;2084658;28;20045;-85
2022/03/06 02:41:34;;;;;;;16.17;10.18;;;1.20;76.60;;;;;;2055105;28;20041;-86
2022/03/06 02:42:37;;;;;;;17.35;10.35;;;1.20;76.60;;;;;;2055473;28;20481;-85
2022/03/06 02:43:38;;;;;;;15.90;9.68;;;1.20;76.60;;;;;;2058222;28;20053;-86
2022/03/06 02:44:38;;;;;;;17.48;10.32;;;1.20;76.90;;;;;;2098078;28;20029;-86
2022/03/06 02:45:40;;;;;;;17.65;10.23;;;1.20;76.60;;;;;;2075702;28;20062;-85
2022/03/06 02:46:45;;;;;;;15.75;10.20;;;1.20;76.70;;;;;;2064264;28;20381;-85
2022/03/06 02:47:46;;;;;;;15.60;9.93;;;1.20;76.80;;;;;;2096677;28;20522;-86
2022/03/06 02:48:47;;;;;;;15.18;9.23;;;1.20;76.70;;;;;;2055257;28;20042;-86
2022/03/06 02:49:48;;;;;;;15.45;9.60;;;1.20;76.70;;;;;;2055279;28;20126;-85
2022/03/06 02:50:51;;;;;;;16.65;10.00;;;1.20;76.80;;;;;;2083751;28;20131;-86
2022/03/06 02:51:52;;;;;;;16.92;10.20;;;1.10;76.80;;;;;;2062890;28;20090;-85
2022/03/06 02:52:53;;;;;;;16.88;10.52;;;1.10;76.80;;;;;;2080917;28;20423;-86
2022/03/06 02:53:54;;;;;;;15.65;10.30;;;1.10;76.80;;;;;;2067815;28;20159;-85
2022/03/06 02:54:56;;;;;;;16.77;9.80;;;1.10;76.90;;;;;;2056933;28;20538;-86
2022/03/06 02:55:58;;;;;;;17.13;10.45;;;1.10;77.00;;;;;;2065033;28;20035;-85
2022/03/06 02:56:59;;;;;;;15.48;10.10;;;1.10;77.00;;;;;;2095909;28;20104;-86
2022/03/06 02:57:59;;;;;;;17.73;10.57;;;1.10;77.00;;;;;;2055758;28;20050;-86
2022/03/06 02:59:00;;;;;;;16.75;10.13;;;1.00;77.00;;;;;;2047947;29;20043;-85
2022/03/06 03:00:02;;;;;;;16.17;10.15;;;1.00;77.10;;;;;;2048637;28;20074;-86
2022/03/06 03:01:02;;;;;;;16.15;10.82;;;1.00;77.10;;;;;;2063382;28;20030;-85
2022/03/06 03:02:04;;;;;;;15.75;9.52;;;1.00;77.30;;;;;;2056279;28;20043;-85
2022/03/06 03:03:05;;;;;;;17.23;10.00;;;1.00;77.20;;;;;;2069977;28;20056;-86
2022/03/06 03:04:09;;;;;;;16.52;10.45;;;0.90;77.20;;;;;;2060651;28;20639;-86
2022/03/06 03:05:11;;;;;;;16.95;10.23;;;1.00;77.30;;;;;;2064955;28;20467;-86
2022/03/06 03:06:12;;;;;;;15.88;10.10;;;0.90;77.20;;;;;;2083695;28;20420;-85
2022/03/06 03:07:12;;;;;;;14.20;9.15;;;0.90;77.30;;;;;;2064192;28;20066;-85
2022/03/06 03:08:13;;;;;;;15.80;9.93;;;0.90;77.30;;;;;;2063684;28;20041;-86
2022/03/06 03:09:14;;;;;;;16.70;9.65;;;0.90;77.40;;;;;;2065550;28;20058;-86
2022/03/06 03:10:17;;;;;;;16.15;9.43;;;0.90;77.40;;;;;;2062548;28;20095;-86
2022/03/06 03:11:17;;;;;;;18.40;11.18;;;0.80;77.40;;;;;;2085795;28;20082;-86
2022/03/06 03:12:18;;;;;;;15.20;9.90;;;0.90;77.50;;;;;;2072489;28;20067;-86
2022/03/06 03:13:19;;;;;;;16.80;10.15;;;0.80;77.60;;;;;;2068934;28;20510;-85
2022/03/06 03:14:19;;;;;;;17.35;10.77;;;0.80;77.60;;;;;;2056584;28;20051;-86
2022/03/06 03:15:20;;;;;;;15.52;9.60;;;0.80;77.60;;;;;;2062827;28;20150;-86
2022/03/06 03:16:21;;;;;;;16.42;10.15;;;0.80;77.70;;;;;;2089349;28;20033;-85
2022/03/06 03:17:21;;;;;;;15.77;9.98;;;0.80;77.70;;;;;;2083960;28;20053;-85
2022/03/06 03:18:22;;;;;;;15.80;9.80;;;0.80;77.70;;;;;;2064902;28;20036;-85
2022/03/06 03:19:22;;;;;;;14.85;9.02;;;0.80;77.80;;;;;;2078907;28;20033;-86
2022/03/06 03:20:23;;;;;;;16.60;9.85;;;0.80;77.70;;;;;;2076790;28;20065;-86
2022/03/06 03:21:24;;;;;;;17.67;11.02;;;0.80;77.80;;;;;;2081039;28;20519;-86
2022/03/06 03:22:25;;;;;;;16.58;10.60;;;0.80;77.80;;;;;;2063582;28;20140;-86
2022/03/06 03:23:25;;;;;;;16.35;9.90;;;0.70;77.70;;;;;;2050594;28;20034;-85
2022/03/06 03:24:27;;;;;;;15.60;10.40;;;0.80;78.40;;;;;;2060969;28;20062;-86
2022/03/06 03:25:27;;;;;;;15.68;10.20;;;0.80;77.80;;;;;;2063817;28;20047;-86
2022/03/06 03:26:28;;;;;;;14.57;9.70;;;0.70;77.80;;;;;;2047825;28;20051;-86
2022/03/06 03:27:29;;;;;;;14.98;9.38;;;0.70;77.80;;;;;;2083051;28;20036;-86
2022/03/06 03:28:30;;;;;;;15.00;9.48;;;0.70;77.80;;;;;;2050987;28;20046;-85
2022/03/06 03:29:31;;;;;;;13.35;8.85;;;0.70;77.80;;;;;;2050706;28;20065;-85
2022/03/06 03:30:32;;;;;;;15.07;9.43;;;0.70;77.80;;;;;;2055673;28;20492;-86
2022/03/06 03:31:32;;;;;;;14.13;8.80;;;0.70;77.80;;;;;;2054638;28;20055;-86
2022/03/06 03:32:33;;;;;;;13.70;9.23;;;0.70;77.80;;;;;;2089011;28;20033;-85
2022/03/06 03:33:34;;;;;;;14.60;9.00;;;0.70;77.80;;;;;;2079176;28;20041;-86
2022/03/06 03:34:34;;;;;;;13.15;8.23;;;0.70;77.80;;;;;;2061508;28;20081;-85
2022/03/06 03:35:35;;;;;;;15.63;9.50;;;0.70;77.80;;;;;;2054257;28;20537;-85
2022/03/06 03:36:36;;;;;;;14.07;9.00;;;0.70;77.90;;;;;;2047593;28;20039;-85
2022/03/06 03:37:37;;;;;;;14.13;8.90;;;0.70;77.80;;;;;;2044836;28;20058;-85
2022/03/06 03:38:39;;;;;;;13.77;8.85;;;0.70;77.90;;;;;;2045270;28;20040;-86
2022/03/06 03:39:41;;;;;;;14.20;9.00;;;0.70;77.90;;;;;;2055499;28;20397;-86
2022/03/06 03:40:41;;;;;;;14.77;8.85;;;0.70;77.90;;;;;;2064423;28;20077;-86
2022/03/06 03:41:42;;;;;;;13.45;8.13;;;0.70;78.00;;;;;;2064189;28;20042;-86
2022/03/06 03:42:42;;;;;;;14.40;9.07;;;0.70;77.90;;;;;;2055503;28;20043;-85
2022/03/06 03:43:43;;;;;;;13.80;9.32;;;0.70;78.00;;;;;;2055179;28;20067;-86
2022/03/06 03:44:44;;;;;;;15.75;9.85;;;0.60;78.00;;;;;;2096838;28;20499;-86
2022/03/06 03:45:44;;;;;;;15.05;9.63;;;0.60;78.00;;;;;;2087078;28;20033;-86
2022/03/06 03:46:45;;;;;;;14.50;9.20;;;0.60;78.00;;;;;;2055311;28;20045;-86
2022/03/06 03:47:46;;;;;;;14.45;9.30;;;0.60;78.00;;;;;;2064235;28;20053;-86
2022/03/06 03:48:46;;;;;;;15.55;9.75;;;0.60;78.00;;;;;;2064191;28;20037;-86
2022/03/06 03:49:47;;;;;;;17.38;10.10;;;0.60;78.10;;;;;;2057581;28;20039;-86
2022/03/06 03:50:48;;;;;;;15.82;10.10;;;0.60;78.10;;;;;;2063470;28;20073;-86
2022/03/06 03:51:48;;;;;;;17.40;9.60;;;0.60;78.20;;;;;;2063619;28;20069;-86
2022/03/06 03:52:49;;;;;;;15.80;9.60;;;0.60;78.20;;;;;;2056129;28;20042;-86
2022/03/06 03:53:49;;;;;;;15.45;9.93;;;0.60;78.30;;;;;;2057144;28;20137;-86
2022/03/06 03:54:50;;;;;;;14.10;9.07;;;0.50;78.20;;;;;;2050259;28;20124;-86
2022/03/06 03:55:53;;;;;;;14.38;9.23;;;0.50;78.30;;;;;;2053600;28;20030;-86
2022/03/06 03:56:54;;;;;;;14.07;8.88;;;0.50;78.30;;;;;;2064035;28;20095;-86
2022/03/06 03:57:54;;;;;;;14.80;9.38;;;0.50;78.30;;;;;;2064092;28;20446;-86
2022/03/06 03:58:55;;;;;;;12.93;8.73;;;0.60;78.40;;;;;;2055497;28;20039;-86
2022/03/06 03:59:56;;;;;;;14.75;9.13;;;0.50;78.40;;;;;;2068943;28;20041;-86
2022/03/06 04:00:57;;;;;;;14.93;9.07;;;0.50;78.40;;;;;;2057570;28;20039;-86
2022/03/06 04:01:57;;;;;;;14.20;9.20;;;0.50;78.40;;;;;;2063026;28;20041;-86
2022/03/06 04:02:58;;;;;;;15.55;9.65;;;0.50;78.40;;;;;;2063922;28;20056;-86
2022/03/06 04:03:58;;;;;;;12.70;8.25;;;0.50;78.50;;;;;;2054905;28;20124;-85
2022/03/06 04:04:59;;;;;;;16.13;9.90;;;0.50;78.40;;;;;;2054340;28;20064;-86
2022/03/06 04:06:00;;;;;;;14.52;9.25;;;0.50;78.50;;;;;;2058639;28;20043;-86
2022/03/06 04:07:00;;;;;;;14.48;9.35;;;0.50;78.50;;;;;;2086165;28;20095;-85
2022/03/06 04:08:01;;;;;;;15.43;9.70;;;0.50;78.50;;;;;;2072424;28;20138;-86
2022/03/06 04:09:03;;;;;;;14.70;9.43;;;0.50;78.50;;;;;;2074059;28;20114;-86
2022/03/06 04:10:04;;;;;;;15.13;9.77;;;0.50;78.60;;;;;;2043376;28;20036;-86
2022/03/06 04:11:06;;;;;;;14.52;9.63;;;0.50;78.60;;;;;;2046807;28;20043;-86
2022/03/06 04:12:07;;;;;;;16.60;9.68;;;0.50;78.60;;;;;;2074482;28;20034;-86
2022/03/06 04:13:08;;;;;;;14.35;9.48;;;0.50;78.60;;;;;;2094457;28;20553;-85
2022/03/06 04:14:08;;;;;;;15.13;9.00;;;0.40;78.60;;;;;;2088903;28;20025;-85
2022/03/06 04:15:09;;;;;;;13.73;8.85;;;0.40;78.60;;;;;;2079521;28;20046;-85
2022/03/06 04:16:10;;;;;;;15.77;9.50;;;0.40;78.60;;;;;;2054771;28;20038;-86
2022/03/06 04:17:10;;;;;;;14.38;9.13;;;0.40;78.60;;;;;;2059713;28;20471;-85
2022/03/06 04:18:11;;;;;;;13.38;8.80;;;0.40;78.70;;;;;;2097142;28;20060;-86
2022/03/06 04:19:12;;;;;;;14.07;9.35;;;0.40;79.30;;;;;;2080594;28;20047;-86
2022/03/06 04:20:12;;;;;;;14.38;9.32;;;0.40;78.70;;;;;;2055339;28;20113;-85
2022/03/06 04:21:13;;;;;;;13.70;8.73;;;0.40;78.70;;;;;;2054988;28;20049;-85
2022/03/06 04:22:13;;;;;;;14.57;8.60;;;0.40;78.80;;;;;;2047444;28;20044;-86
2022/03/06 04:23:16;;;;;;;15.13;9.55;;;0.40;78.80;;;;;;2047658;28;20051;-85
2022/03/06 04:24:16;;;;;;;13.55;8.68;;;0.40;78.80;;;;;;2067833;28;20104;-85
2022/03/06 04:25:17;;;;;;;14.60;9.27;;;0.40;78.90;;;;;;2097435;28;20041;-86
2022/03/06 04:26:18;;;;;;;14.65;8.93;;;0.40;78.90;;;;;;2088325;28;20025;-86
2022/03/06 04:27:19;;;;;;;15.75;9.85;;;0.40;79.00;;;;;;2100153;28;20097;-85
2022/03/06 04:28:19;;;;;;;15.52;9.93;;;0.40;79.00;;;;;;2097027;28;20037;-86
2022/03/06 04:29:20;;;;;;;15.05;9.45;;;0.40;79.00;;;;;;2101533;28;20047;-86
2022/03/06 04:30:21;;;;;;;16.35;9.82;;;0.30;79.00;;;;;;2099544;28;20033;-85
2022/03/06 04:31:22;;;;;;;16.70;9.90;;;0.30;79.00;;;;;;2104578;28;20042;-86
2022/03/06 04:32:23;;;;;;;14.48;9.55;;;0.30;79.00;;;;;;2092040;28;20057;-86
2022/03/06 04:33:24;;;;;;;15.30;9.70;;;0.30;79.20;;;;;;2089644;28;20479;-85
2022/03/06 04:34:25;;;;;;;14.75;9.38;;;0.30;79.10;;;;;;2090328;28;20542;-86
2022/03/06 04:35:25;;;;;;;14.60;9.63;;;0.30;79.20;;;;;;2085367;28;20045;-86
2022/03/06 04:36:26;;;;;;;14.52;9.23;;;0.20;79.20;;;;;;2070276;28;20045;-86
2022/03/06 04:37:27;;;;;;;14.80;9.55;;;0.20;79.20;;;;;;2081088;28;20104;-85
2022/03/06 04:38:27;;;;;;;15.18;10.10;;;0.20;79.20;;;;;;2083109;28;20053;-86
2022/03/06 04:39:28;;;;;;;15.23;9.63;;;0.20;79.20;;;;;;2085719;28;20447;-85
2022/03/06 04:40:29;;;;;;;13.88;8.95;;;0.20;79.30;;;;;;2073263;28;20034;-86
2022/03/06 04:41:29;;;;;;;15.32;9.70;;;0.20;79.30;;;;;;2077349;28;20080;-85
2022/03/06 04:42:30;;;;;;;15.45;9.15;;;0.20;79.40;;;;;;2088247;28;20115;-86
2022/03/06 04:43:31;;;;;;;14.73;9.05;;;0.20;79.40;;;;;;2089734;28;20076;-85
2022/03/06 04:44:31;;;;;;;15.95;10.32;;;0.20;79.40;;;;;;2096232;28;20044;-85
2022/03/06 04:45:32;;;;;;;14.00;8.88;;;0.20;79.40;;;;;;2091359;28;20551;-86
2022/03/06 04:46:32;;;;;;;13.90;9.15;;;0.20;79.40;;;;;;2081100;28;20520;-86
2022/03/06 04:47:33;;;;;;;16.38;9.90;;;0.20;79.40;;;;;;2091286;28;20522;-86
2022/03/06 04:48:34;;;;;;;13.27;8.57;;;0.20;79.40;;;;;;2088381;28;20080;-85
2022/03/06 04:49:35;;;;;;;13.80;8.55;;;0.20;79.40;;;;;;2081396;28;20459;-86
2022/03/06 04:50:35;;;;;;;14.75;9.27;;;0.20;79.40;;;;;;2080860;28;20037;-85
2022/03/06 04:51:36;;;;;;;15.18;9.48;;;0.20;79.40;;;;;;2089224;28;20514;-86
2022/03/06 04:52:37;;;;;;;14.05;9.32;;;0.20;79.40;;;;;;2089413;28;20076;-86
2022/03/06 04:53:38;;;;;;;16.17;9.98;;;0.20;79.40;;;;;;2090102;28;20041;-85
2022/03/06 04:54:38;;;;;;;16.38;9.27;;;0.20;79.60;;;;;;2093160;28;20033;-86
2022/03/06 04:55:39;;;;;;;15.65;8.80;;;0.20;79.60;;;;;;2093723;28;20136;-86
2022/03/06 04:56:40;;;;;;;15.15;10.10;;;0.10;79.60;;;;;;2087906;28;20045;-86
2022/03/06 04:57:41;;;;;;;14.98;10.10;;;0.10;79.60;;;;;;2081746;28;20040;-85
2022/03/06 04:58:41;;;;;;;16.15;10.13;;;0.10;79.60;;;;;;2087352;28;20044;-86
2022/03/06 04:59:42;;;;;;;15.93;10.35;;;0.10;79.70;;;;;;2086690;28;20384;-86
2022/03/06 05:00:43;;;;;;;14.93;10.00;;;0.10;79.80;;;;;;2080620;28;20049;-86
2022/03/06 05:01:43;;;;;;;13.85;8.75;;;0.10;79.80;;;;;;2088253;28;20589;-86
2022/03/06 05:02:44;;;;;;;15.73;10.10;;;0.10;79.80;;;;;;2097845;28;20535;-86
2022/03/06 05:03:45;;;;;;;16.17;9.70;;;0.10;80.00;;;;;;2093887;28;20537;-86
2022/03/06 05:04:45;;;;;;;17.08;10.45;;;0.10;79.90;;;;;;2087912;28;20492;-86
2022/03/06 05:05:46;;;;;;;15.00;9.80;;;0.10;79.90;;;;;;2096523;28;20110;-86
2022/03/06 05:06:47;;;;;;;15.43;10.05;;;0.10;79.90;;;;;;2089573;28;20048;-86
2022/03/06 05:07:47;;;;;;;15.85;10.23;;;0.10;79.90;;;;;;2097385;28;20406;-85
2022/03/06 05:08:48;;;;;;;16.30;10.10;;;0.10;79.90;;;;;;2100547;28;20395;-86
2022/03/06 05:09:49;;;;;;;14.93;9.52;;;0.10;79.90;;;;;;2092296;28;20135;-85
2022/03/06 05:10:49;;;;;;;14.45;8.80;;;0.10;79.90;;;;;;2090357;28;20446;-85
2022/03/06 05:11:50;;;;;;;16.77;9.15;;;0.10;79.90;;;;;;2081564;28;20136;-85
2022/03/06 05:12:51;;;;;;;14.02;9.63;;;0.10;80.00;;;;;;2090846;28;20053;-85
2022/03/06 05:13:51;;;;;;;12.90;8.88;;;0.10;79.90;;;;;;2102407;28;20770;-85
2022/03/06 05:14:52;;;;;;;15.18;8.90;;;0.10;79.90;;;;;;2105767;28;20139;-86